createdAt,value
2024-02-29T00:00:07.545Z,101785.91
2024-02-29T00:02:35.520Z,101786.75
2024-02-29T00:05:02.728Z,101786.22
2024-02-29T00:07:29.779Z,101776.13
2024-02-29T00:09:56.801Z,101776.66
2024-02-29T00:12:24.044Z,101775.16
2024-02-29T00:14:52.898Z,101778.63
2024-02-29T00:17:21.017Z,101784.56
2024-02-29T00:19:48.377Z,101788.03
2024-02-29T00:22:15.592Z,101779.59
2024-02-29T00:24:42.745Z,101790.81
2024-02-29T00:27:10.044Z,101785.69
2024-02-29T00:29:37.048Z,101787.66
2024-02-29T00:32:04.288Z,101778.78
2024-02-29T00:34:31.319Z,101775.47
2024-02-29T00:36:58.777Z,101760.94
2024-02-29T00:39:25.936Z,101761.91
2024-02-29T00:41:53.431Z,101757.63
2024-02-29T00:44:20.623Z,101768.00
2024-02-29T00:46:47.715Z,101757.78
2024-02-29T00:49:15.184Z,101756.13
2024-02-29T00:51:43.443Z,101756.94
2024-02-29T00:54:10.623Z,101761.25
2024-02-29T00:56:37.687Z,101757.09
2024-02-29T00:59:04.810Z,101758.22
2024-02-29T01:01:32.019Z,101762.69
2024-02-29T01:03:59.357Z,101751.31
2024-02-29T01:06:26.489Z,101762.53
2024-02-29T01:08:53.726Z,101752.28
2024-02-29T01:11:21.105Z,101757.56
2024-02-29T01:13:49.247Z,101754.25
2024-02-29T01:16:16.359Z,101752.28
2024-02-29T01:18:43.614Z,101748.97
2024-02-29T01:21:10.911Z,101747.47
2024-02-29T01:23:38.135Z,101741.38
2024-02-29T01:26:05.321Z,101742.34
2024-02-29T01:28:32.660Z,101757.34
2024-02-29T01:31:01.487Z,101759.31
2024-02-29T01:33:28.992Z,101754.84
2024-02-29T01:35:56.175Z,101758.47
2024-02-29T01:38:23.232Z,101758.09
2024-02-29T01:40:50.398Z,101750.88
2024-02-29T01:43:17.695Z,101736.50
2024-02-29T01:45:45.568Z,101741.75
2024-02-29T01:48:14.815Z,101735.53
2024-02-29T01:50:41.890Z,101738.31
2024-02-29T01:53:09.984Z,101740.13
2024-02-29T01:55:37.254Z,101738.31
2024-02-29T01:58:06.212Z,101727.25
2024-02-29T02:00:34.418Z,101735.97
2024-02-29T02:03:01.789Z,101727.56
2024-02-29T02:05:28.935Z,101717.00
2024-02-29T02:07:56.711Z,101711.75
2024-02-29T02:10:23.894Z,101710.25
2024-02-29T02:12:50.981Z,101712.19
2024-02-29T02:15:18.274Z,101708.88
2024-02-29T02:17:45.810Z,101710.69
2024-02-29T02:20:18.483Z,101704.59
2024-02-29T02:22:46.058Z,101690.22
2024-02-29T02:25:13.584Z,101688.41
2024-02-29T02:27:41.002Z,101686.63
2024-02-29T02:30:09.028Z,101680.53
2024-02-29T02:32:37.713Z,101678.16
2024-02-29T02:35:05.931Z,101666.66
2024-02-29T02:37:37.976Z,101657.09
2024-02-29T02:40:07.081Z,101660.84
2024-02-29T02:42:34.325Z,101660.03
2024-02-29T02:45:01.593Z,101657.69
2024-02-29T02:47:28.610Z,101669.88
2024-02-29T02:49:55.677Z,101665.59
2024-02-29T02:52:22.694Z,101666.59
2024-02-29T02:54:50.891Z,101645.50
2024-02-29T02:57:17.965Z,101644.16
2024-02-29T02:59:45.078Z,101645.81
2024-02-29T03:02:12.278Z,101650.09
2024-02-29T03:04:39.344Z,101637.91
2024-02-29T03:07:06.477Z,101647.09
2024-02-29T03:09:34.232Z,101640.69
2024-02-29T03:12:01.641Z,101632.44
2024-02-29T03:14:28.873Z,101634.25
2024-02-29T03:16:56.439Z,101631.75
2024-02-29T03:19:23.442Z,101633.56
2024-02-29T03:21:50.515Z,101634.03
2024-02-29T03:24:17.600Z,101631.22
2024-02-29T03:26:44.621Z,101634.69
2024-02-29T03:29:13.152Z,101626.94
2024-02-29T03:31:44.267Z,101624.47
2024-02-29T03:34:11.569Z,101615.06
2024-02-29T03:36:38.948Z,101615.06
2024-02-29T03:39:06.190Z,101611.22
2024-02-29T03:41:33.677Z,101613.03
2024-02-29T03:44:00.825Z,101604.00
2024-02-29T03:46:27.999Z,101603.50
2024-02-29T03:48:55.067Z,101612.50
2024-02-29T03:51:22.083Z,101620.94
2024-02-29T03:53:49.069Z,101603.66
2024-02-29T03:56:16.195Z,101609.06
2024-02-29T03:58:43.196Z,101611.53
2024-02-29T04:01:13.955Z,101609.88
2024-02-29T04:03:42.016Z,101612.50
2024-02-29T04:06:09.435Z,101608.22
2024-02-29T04:08:37.156Z,101607.25
2024-02-29T04:11:04.956Z,101601.16
2024-02-29T04:13:32.245Z,101586.66
2024-02-29T04:15:59.332Z,101596.06
2024-02-29T04:18:26.331Z,101597.84
2024-02-29T04:20:53.401Z,101598.84
2024-02-29T04:23:20.453Z,101599.97
2024-02-29T04:25:47.434Z,101599.97
2024-02-29T04:28:15.859Z,101587.94
2024-02-29T04:30:43.906Z,101593.03
2024-02-29T04:33:12.764Z,101586.13
2024-02-29T04:35:40.315Z,101589.59
2024-02-29T04:38:07.926Z,101579.22
2024-02-29T04:40:35.115Z,101579.06
2024-02-29T04:43:02.315Z,101568.84
2024-02-29T04:45:29.633Z,101571.31
2024-02-29T04:47:57.664Z,101579.88
2024-02-29T04:50:24.783Z,101576.44
2024-02-29T04:52:52.027Z,101583.34
2024-02-29T04:55:20.465Z,101585.00
2024-02-29T04:57:47.838Z,101579.72
2024-02-29T05:00:15.373Z,101576.94
2024-02-29T05:02:42.418Z,101574.47
2024-02-29T05:05:12.725Z,101573.19
2024-02-29T05:07:40.181Z,101570.41
2024-02-29T05:10:09.122Z,101573.84
2024-02-29T05:12:36.824Z,101586.19
2024-02-29T05:15:04.492Z,101588.53
2024-02-29T05:17:31.499Z,101594.63
2024-02-29T05:19:59.689Z,101580.63
2024-02-29T05:22:27.338Z,101579.66
2024-02-29T05:24:54.599Z,101577.84
2024-02-29T05:27:21.704Z,101570.78
2024-02-29T05:29:48.771Z,101574.22
2024-02-29T05:32:18.664Z,101574.38
2024-02-29T05:34:47.523Z,101570.78
2024-02-29T05:37:14.863Z,101562.06
2024-02-29T05:39:42.498Z,101560.09
2024-02-29T05:42:10.501Z,101551.38
2024-02-29T05:44:37.839Z,101556.63
2024-02-29T05:47:04.886Z,101549.88
2024-02-29T05:49:31.963Z,101550.53
2024-02-29T05:51:59.136Z,101544.44
2024-02-29T05:54:26.546Z,101548.59
2024-02-29T05:56:57.878Z,101539.03
2024-02-29T05:59:25.623Z,101551.06
2024-02-29T06:01:53.135Z,101546.78
2024-02-29T06:04:20.382Z,101550.25
2024-02-29T06:06:47.555Z,101552.09
2024-02-29T06:09:16.064Z,101547.00
2024-02-29T06:11:43.366Z,101542.41
2024-02-29T06:14:11.284Z,101544.72
2024-02-29T06:16:38.467Z,101552.31
2024-02-29T06:19:05.698Z,101553.66
2024-02-29T06:21:32.814Z,101552.53
2024-02-29T06:23:59.938Z,101558.31
2024-02-29T06:26:26.937Z,101550.25
2024-02-29T06:28:54.049Z,101556.03
2024-02-29T06:31:21.136Z,101552.13
2024-02-29T06:33:48.172Z,101551.66
2024-02-29T06:36:15.211Z,101551.06
2024-02-29T06:38:42.179Z,101550.06
2024-02-29T06:41:12.340Z,101546.81
2024-02-29T06:43:39.497Z,101541.69
2024-02-29T06:46:08.176Z,101550.31
2024-02-29T06:48:35.917Z,101552.47
2024-02-29T06:51:03.546Z,101554.16
2024-02-29T06:53:32.556Z,101543.81
2024-02-29T06:55:59.622Z,101541.22
2024-02-29T06:58:26.753Z,101538.44
2024-02-29T07:00:53.962Z,101539.97
2024-02-29T07:03:23.387Z,101538.72
2024-02-29T07:05:51.188Z,101538.09
2024-02-29T07:08:18.314Z,101535.81
2024-02-29T07:10:45.561Z,101526.25
2024-02-29T07:13:12.929Z,101522.97
2024-02-29T07:15:40.092Z,101508.28
2024-02-29T07:18:07.867Z,101519.53
2024-02-29T07:20:35.013Z,101517.34
2024-02-29T07:23:03.166Z,101503.09
2024-02-29T07:25:30.554Z,101507.13
2024-02-29T07:27:58.820Z,101496.81
2024-02-29T07:30:28.515Z,101494.69
2024-02-29T07:32:56.036Z,101485.59
2024-02-29T07:35:23.369Z,101488.09
2024-02-29T07:37:53.009Z,101484.88
2024-02-29T07:40:22.337Z,101488.41
2024-02-29T07:42:49.706Z,101480.22
2024-02-29T07:45:20.502Z,101495.53
2024-02-29T07:47:48.535Z,101496.06
2024-02-29T07:50:15.745Z,101488.78
2024-02-29T07:52:42.904Z,101488.84
2024-02-29T07:55:17.889Z,101481.50
2024-02-29T07:57:46.154Z,101486.03
2024-02-29T08:00:13.733Z,101485.44
2024-02-29T08:02:44.924Z,101471.56
2024-02-29T08:05:12.376Z,101476.69
2024-02-29T08:07:39.924Z,101470.09
2024-02-29T08:10:08.198Z,101465.69
2024-02-29T08:12:35.367Z,101473.97
2024-02-29T08:15:02.673Z,101461.91
2024-02-29T08:17:30.146Z,101465.16
2024-02-29T08:19:57.736Z,101461.63
2024-02-29T08:22:25.721Z,101454.31
2024-02-29T08:24:52.896Z,101447.09
2024-02-29T08:27:19.893Z,101442.78
2024-02-29T08:29:46.955Z,101447.59
2024-02-29T08:32:15.912Z,101449.53
2024-02-29T08:34:43.399Z,101446.84
2024-02-29T08:37:11.166Z,101430.75
2024-02-29T08:39:41.398Z,101431.94
2024-02-29T08:42:10.995Z,101431.78
2024-02-29T08:44:43.441Z,101424.25
2024-02-29T08:47:10.536Z,101427.06
2024-02-29T08:49:37.650Z,101427.75
2024-02-29T08:52:05.472Z,101418.16
2024-02-29T08:54:32.534Z,101421.13
2024-02-29T08:56:59.557Z,101409.47
2024-02-29T08:59:26.646Z,101405.34
2024-02-29T09:01:54.599Z,101402.84
2024-02-29T09:04:22.217Z,101398.97
2024-02-29T09:06:49.289Z,101392.56
2024-02-29T09:09:17.737Z,101388.91
2024-02-29T09:11:45.123Z,101389.78
2024-02-29T09:14:12.188Z,101381.47
2024-02-29T09:16:39.389Z,101385.28
2024-02-29T09:19:07.196Z,101385.75
2024-02-29T09:21:34.238Z,101382.59
2024-02-29T09:24:01.383Z,101382.53
2024-02-29T09:26:28.352Z,101366.09
2024-02-29T09:28:55.498Z,101368.34
2024-02-29T09:31:22.535Z,101368.25
2024-02-29T09:33:49.995Z,101368.94
2024-02-29T09:36:17.229Z,101369.91
2024-02-29T09:38:44.502Z,101363.28
2024-02-29T09:41:31.776Z,101370.63
2024-02-29T09:44:04.241Z,101363.09
2024-02-29T09:46:31.969Z,101351.81
2024-02-29T09:48:59.935Z,101351.56
2024-02-29T09:51:27.871Z,101339.75
2024-02-29T09:53:55.868Z,101338.16
2024-02-29T09:56:25.211Z,101332.69
2024-02-29T09:58:57.407Z,101333.72
2024-02-29T10:01:24.740Z,101325.13
2024-02-29T10:03:52.578Z,101321.63
2024-02-29T10:06:20.198Z,101315.13
2024-02-29T10:08:47.365Z,101314.34
2024-02-29T10:11:14.618Z,101315.38
2024-02-29T10:13:42.776Z,101309.03
2024-02-29T10:16:12.454Z,101300.78
2024-02-29T10:18:40.110Z,101310.00
2024-02-29T10:21:12.403Z,101294.63
2024-02-29T10:23:41.242Z,101299.44
2024-02-29T10:26:09.817Z,101293.84
2024-02-29T10:28:37.047Z,101285.88
2024-02-29T10:31:05.955Z,101291.13
2024-02-29T10:33:38.893Z,101278.59
2024-02-29T10:36:12.521Z,101288.09
2024-02-29T10:38:39.839Z,101273.28
2024-02-29T10:41:10.214Z,101267.75
2024-02-29T10:43:38.577Z,101271.16
2024-02-29T10:46:07.520Z,101276.41
2024-02-29T10:48:52.936Z,101281.91
2024-02-29T10:51:41.881Z,101277.44
2024-02-29T10:54:27.354Z,101258.50
2024-02-29T10:56:55.664Z,101264.88
2024-02-29T10:59:25.090Z,101257.59
2024-02-29T11:01:58.684Z,101249.03
2024-02-29T11:04:27.011Z,101242.78
2024-02-29T11:06:55.193Z,101237.50
2024-02-29T11:09:27.470Z,101235.38
2024-02-29T11:12:28.114Z,101223.97
2024-02-29T11:14:59.271Z,101223.84
2024-02-29T11:17:32.480Z,101214.38
2024-02-29T11:20:04.733Z,101213.59
2024-02-29T11:22:34.107Z,101210.19
2024-02-29T11:25:10.464Z,101196.69
2024-02-29T11:27:38.258Z,101183.88
2024-02-29T11:30:06.392Z,101185.47
2024-02-29T11:32:34.884Z,101185.34
2024-02-29T11:35:03.075Z,101169.94
2024-02-29T11:37:33.797Z,101164.59
2024-02-29T11:40:06.846Z,101164.84
2024-02-29T11:42:35.391Z,101156.53
2024-02-29T11:45:02.859Z,101157.56
2024-02-29T11:47:29.860Z,101159.50
2024-02-29T11:50:01.245Z,101142.41
2024-02-29T11:52:28.731Z,101132.75
2024-02-29T11:54:56.043Z,101134.97
2024-02-29T11:57:24.619Z,101126.47
2024-02-29T11:59:54.805Z,101122.50
2024-02-29T12:02:23.520Z,101120.66
2024-02-29T12:04:50.877Z,101121.41
2024-02-29T12:07:18.315Z,101113.88
2024-02-29T12:09:46.678Z,101098.31
2024-02-29T12:12:14.174Z,101094.84
2024-02-29T12:14:43.443Z,101099.59
2024-02-29T12:17:10.661Z,101089.41
2024-02-29T12:19:40.873Z,101088.03
2024-02-29T12:22:15.145Z,101083.03
2024-02-29T12:24:43.380Z,101079.03
2024-02-29T12:27:10.742Z,101064.69
2024-02-29T12:29:37.795Z,101069.63
2024-02-29T12:32:05.611Z,101069.69
2024-02-29T12:34:32.803Z,101069.28
2024-02-29T12:37:01.685Z,101059.78
2024-02-29T12:39:28.954Z,101054.56
2024-02-29T12:41:56.092Z,101045.47
2024-02-29T12:44:23.734Z,101046.09
2024-02-29T12:46:56.969Z,101038.13
2024-02-29T12:49:24.413Z,101023.88
2024-02-29T12:51:52.610Z,101030.56
2024-02-29T12:54:20.446Z,101015.81
2024-02-29T12:56:47.516Z,101022.94
2024-02-29T12:59:14.669Z,101018.13
2024-02-29T13:01:42.274Z,101011.34
2024-02-29T13:04:09.450Z,101008.34
2024-02-29T13:06:36.706Z,101011.56
2024-02-29T13:09:05.995Z,101002.06
2024-02-29T13:11:33.131Z,100995.94
2024-02-29T13:14:00.350Z,100986.81
2024-02-29T13:16:27.654Z,100991.88
2024-02-29T13:18:54.783Z,100978.44
2024-02-29T13:21:21.798Z,100975.13
2024-02-29T13:23:48.806Z,100967.09
2024-02-29T13:26:16.657Z,100980.19
2024-02-29T13:28:43.837Z,100966.38
2024-02-29T13:31:11.919Z,100967.06
2024-02-29T13:33:39.660Z,100967.44
2024-02-29T13:36:07.320Z,100962.38
2024-02-29T13:38:38.067Z,100959.28
2024-02-29T13:41:06.236Z,100950.59
2024-02-29T13:43:33.310Z,100952.69
2024-02-29T13:46:00.653Z,100951.09
2024-02-29T13:48:27.873Z,100948.78
2024-02-29T13:50:55.868Z,100945.16
2024-02-29T13:53:22.884Z,100944.22
2024-02-29T13:55:51.825Z,100932.19
2024-02-29T13:58:19.002Z,100938.13
2024-02-29T14:00:46.247Z,100931.69
2024-02-29T14:03:13.620Z,100928.66
2024-02-29T14:05:40.723Z,100936.72
2024-02-29T14:08:08.618Z,100922.69
2024-02-29T14:10:35.686Z,100938.38
2024-02-29T14:13:02.962Z,100922.03
2024-02-29T14:15:30.447Z,100931.28
2024-02-29T14:17:57.773Z,100930.75
2024-02-29T14:20:24.959Z,100923.81
2024-02-29T14:22:52.162Z,100925.94
2024-02-29T14:25:19.578Z,100919.50
2024-02-29T14:27:47.060Z,100921.50
2024-02-29T14:30:15.029Z,100921.69
2024-02-29T14:32:43.186Z,100920.06
2024-02-29T14:35:10.829Z,100919.69
2024-02-29T14:37:38.344Z,100915.25
2024-02-29T14:40:09.282Z,100911.13
2024-02-29T14:42:36.538Z,100910.81
2024-02-29T14:45:04.334Z,100906.78
2024-02-29T14:47:31.584Z,100912.63
2024-02-29T14:49:58.927Z,100904.00
2024-02-29T14:52:28.042Z,100907.72
2024-02-29T14:54:56.401Z,100912.81
2024-02-29T14:57:23.885Z,100926.31
2024-02-29T14:59:51.011Z,100919.53
2024-02-29T15:02:18.333Z,100901.75
2024-02-29T15:04:46.032Z,100897.22
2024-02-29T15:07:13.976Z,100904.06
2024-02-29T15:09:42.733Z,100905.69
2024-02-29T15:12:09.879Z,100898.66
2024-02-29T15:14:37.421Z,100898.69
2024-02-29T15:17:05.713Z,100900.31
2024-02-29T15:19:33.069Z,100890.06
2024-02-29T15:22:00.198Z,100894.94
2024-02-29T15:24:29.855Z,100892.22
2024-02-29T15:27:00.726Z,100892.81
2024-02-29T15:29:27.889Z,100882.00
2024-02-29T15:31:55.185Z,100876.63
2024-02-29T15:34:22.840Z,100873.91
2024-02-29T15:36:50.114Z,100868.25
2024-02-29T15:39:17.281Z,100870.41
2024-02-29T15:41:44.889Z,100870.34
2024-02-29T15:44:14.053Z,100858.19
2024-02-29T15:46:42.984Z,100864.13
2024-02-29T15:49:11.473Z,100863.59
2024-02-29T15:51:39.132Z,100861.16
2024-02-29T15:54:06.545Z,100853.00
2024-02-29T15:56:33.667Z,100854.03
2024-02-29T15:59:01.250Z,100851.03
2024-02-29T16:01:29.812Z,100848.53
2024-02-29T16:03:57.097Z,100843.56
2024-02-29T16:06:24.532Z,100831.66
2024-02-29T16:08:52.373Z,100836.34
2024-02-29T16:11:23.212Z,100827.88
2024-02-29T16:13:54.672Z,100831.53
2024-02-29T16:16:21.958Z,100834.38
2024-02-29T16:18:49.103Z,100835.50
2024-02-29T16:21:16.876Z,100832.69
2024-02-29T16:23:45.183Z,100823.66
2024-02-29T16:26:12.282Z,100837.00
2024-02-29T16:28:39.340Z,100840.59
2024-02-29T16:31:06.498Z,100852.56
2024-02-29T16:33:33.762Z,100846.25
2024-02-29T16:36:00.911Z,100839.03
2024-02-29T16:38:29.688Z,100839.72
2024-02-29T16:41:00.122Z,100836.00
2024-02-29T16:43:29.826Z,100835.78
2024-02-29T16:45:57.239Z,100837.28
2024-02-29T16:48:24.682Z,100832.00
2024-02-29T16:50:54.530Z,100834.28
2024-02-29T16:53:21.587Z,100824.19
2024-02-29T16:55:48.798Z,100827.53
2024-02-29T16:58:15.902Z,100823.88
2024-02-29T17:00:43.141Z,100831.84
2024-02-29T17:03:10.434Z,100835.75
2024-02-29T17:05:37.767Z,100826.72
2024-02-29T17:08:06.830Z,100816.81
2024-02-29T17:10:33.902Z,100823.38
2024-02-29T17:13:01.408Z,100822.97
2024-02-29T17:15:28.763Z,100825.19
2024-02-29T17:17:55.926Z,100827.31
2024-02-29T17:20:22.917Z,100814.88
2024-02-29T17:22:50.101Z,100811.38
2024-02-29T17:25:17.262Z,100804.28
2024-02-29T17:27:45.416Z,100812.22
2024-02-29T17:30:13.032Z,100804.31
2024-02-29T17:32:40.235Z,100809.22
2024-02-29T17:35:08.225Z,100817.16
2024-02-29T17:37:35.592Z,100815.28
2024-02-29T17:40:03.105Z,100811.78
2024-02-29T17:42:30.569Z,100802.94
2024-02-29T17:44:57.896Z,100803.19
2024-02-29T17:47:25.216Z,100797.59
2024-02-29T17:49:52.645Z,100806.44
2024-02-29T17:52:19.931Z,100799.69
2024-02-29T17:54:48.420Z,100800.50
2024-02-29T17:57:15.993Z,100791.88
2024-02-29T17:59:42.996Z,100793.50
2024-02-29T18:02:11.835Z,100781.09
2024-02-29T18:04:39.723Z,100791.88
2024-02-29T18:07:06.785Z,100784.44
2024-02-29T18:09:34.062Z,100788.16
2024-02-29T18:12:01.273Z,100785.97
2024-02-29T18:14:29.961Z,100774.91
2024-02-29T18:16:57.802Z,100777.13
2024-02-29T18:19:25.061Z,100777.25
2024-02-29T18:21:52.758Z,100780.50
2024-02-29T18:24:21.020Z,100777.03
2024-02-29T18:26:48.800Z,100771.91
2024-02-29T18:29:17.003Z,100773.09
2024-02-29T18:31:44.238Z,100753.78
2024-02-29T18:34:11.338Z,100753.22
2024-02-29T18:36:40.322Z,100750.53
2024-02-29T18:39:12.289Z,100748.66
2024-02-29T18:41:41.278Z,100744.13
2024-02-29T18:44:09.967Z,100746.56
2024-02-29T18:46:39.516Z,100748.66
2024-02-29T18:49:07.101Z,100741.69
2024-02-29T18:51:34.265Z,100735.19
2024-02-29T18:54:01.342Z,100729.72
2024-02-29T18:56:28.476Z,100735.31
2024-02-29T18:58:55.870Z,100729.97
2024-02-29T19:01:23.209Z,100723.47
2024-02-29T19:03:50.704Z,100733.38
2024-02-29T19:06:18.245Z,100728.72
2024-02-29T19:08:45.495Z,100726.28
2024-02-29T19:11:12.941Z,100731.66
2024-02-29T19:13:40.349Z,100728.16
2024-02-29T19:16:08.551Z,100728.06
2024-02-29T19:18:36.256Z,100714.91
2024-02-29T19:21:04.049Z,100714.00
2024-02-29T19:23:31.572Z,100708.31
2024-02-29T19:26:00.207Z,100710.19
2024-02-29T19:28:28.778Z,100709.72
2024-02-29T19:30:56.334Z,100704.84
2024-02-29T19:33:23.556Z,100700.53
2024-02-29T19:35:52.133Z,100701.91
2024-02-29T19:38:22.541Z,100694.22
2024-02-29T19:40:51.301Z,100695.19
2024-02-29T19:43:19.663Z,100698.31
2024-02-29T19:45:47.260Z,100685.41
2024-02-29T19:48:18.976Z,100691.56
2024-02-29T19:50:46.115Z,100693.22
2024-02-29T19:53:13.383Z,100685.88
2024-02-29T19:55:43.369Z,100692.03
2024-02-29T19:58:13.700Z,100695.28
2024-02-29T20:00:48.830Z,100686.69
2024-02-29T20:03:16.778Z,100683.09
2024-02-29T20:05:44.348Z,100684.97
2024-02-29T20:08:11.385Z,100680.66
2024-02-29T20:10:39.861Z,100680.66
2024-02-29T20:13:07.173Z,100668.81
2024-02-29T20:15:35.222Z,100673.09
2024-02-29T20:18:02.307Z,100658.59
2024-02-29T20:20:29.474Z,100657.53
2024-02-29T20:23:00.258Z,100659.41
2024-02-29T20:25:28.108Z,100652.91
2024-02-29T20:27:56.149Z,100654.28
2024-02-29T20:30:23.765Z,100649.16
2024-02-29T20:32:51.317Z,100645.69
2024-02-29T20:35:18.758Z,100646.25
2024-02-29T20:37:46.412Z,100642.19
2024-02-29T20:40:14.782Z,100643.81
2024-02-29T20:42:42.744Z,100631.50
2024-02-29T20:45:13.541Z,100630.78
2024-02-29T20:47:42.299Z,100626.72
2024-02-29T20:50:11.169Z,100630.22
2024-02-29T20:52:38.216Z,100615.78
2024-02-29T20:55:06.320Z,100621.13
2024-02-29T20:57:33.740Z,100609.63
2024-02-29T21:00:01.287Z,100611.25
2024-02-29T21:02:29.713Z,100615.53
2024-02-29T21:04:59.310Z,100611.81
2024-02-29T21:07:27.185Z,100608.31
2024-02-29T21:09:56.314Z,100601.94
2024-02-29T21:12:24.804Z,100604.38
2024-02-29T21:14:55.049Z,100596.66
2024-02-29T21:17:22.382Z,100588.63
2024-02-29T21:19:49.527Z,100589.13
2024-02-29T21:22:16.626Z,100585.16
2024-02-29T21:24:43.862Z,100568.78
2024-02-29T21:27:11.117Z,100559.22
2024-02-29T21:29:39.862Z,100560.25
2024-02-29T21:32:08.626Z,100552.25
2024-02-29T21:34:35.869Z,100553.03
2024-02-29T21:37:02.917Z,100543.97
2024-02-29T21:39:36.508Z,100557.09
2024-02-29T21:42:07.841Z,100554.19
2024-02-29T21:44:34.865Z,100556.06
2024-02-29T21:47:01.949Z,100553.38
2024-02-29T21:49:29.012Z,100560.84
2024-02-29T21:51:56.418Z,100545.19
2024-02-29T21:54:24.472Z,100557.00
2024-02-29T21:56:52.918Z,100561.56
2024-02-29T21:59:20.455Z,100554.00
2024-02-29T22:01:48.919Z,100546.22
2024-02-29T22:04:16.713Z,100551.56
2024-02-29T22:06:44.254Z,100544.84
2024-02-29T22:09:12.080Z,100539.16
2024-02-29T22:11:39.229Z,100541.28
2024-02-29T22:14:06.644Z,100541.50
2024-02-29T22:16:34.066Z,100537.94
2024-02-29T22:19:01.691Z,100542.94
2024-02-29T22:21:29.835Z,100530.03
2024-02-29T22:24:00.673Z,100532.84
2024-02-29T22:26:27.923Z,100530.56
2024-02-29T22:28:55.036Z,100532.31
2024-02-29T22:31:22.361Z,100527.13
2024-02-29T22:33:49.613Z,100525.88
2024-02-29T22:36:16.867Z,100528.69
2024-02-29T22:38:43.983Z,100518.09
2024-02-29T22:41:11.090Z,100519.03
2024-02-29T22:43:38.262Z,100526.94
2024-02-29T22:46:05.487Z,100515.25
2024-02-29T22:48:32.711Z,100517.59
2024-02-29T22:51:00.166Z,100506.44
2024-02-29T22:53:27.385Z,100511.44
2024-02-29T22:55:54.622Z,100510.53
2024-02-29T22:58:21.898Z,100514.13
2024-02-29T23:03:19.155Z,100498.94
2024-02-29T23:05:46.314Z,100494.41
2024-02-29T23:08:13.439Z,100485.25
2024-02-29T23:10:40.528Z,100486.41
2024-02-29T23:13:08.084Z,100486.41
2024-02-29T23:15:35.293Z,100485.84
2024-02-29T23:18:02.359Z,100478.63
2024-02-29T23:20:29.727Z,100483.75
2024-02-29T23:22:58.117Z,100478.97
2024-02-29T23:25:25.790Z,100460.88
2024-02-29T23:27:53.416Z,100465.72
2024-02-29T23:30:20.920Z,100467.69
2024-02-29T23:32:47.940Z,100462.34
2024-02-29T23:35:15.013Z,100462.47
2024-02-29T23:37:42.136Z,100460.13
2024-02-29T23:40:10.020Z,100457.56
2024-02-29T23:42:37.422Z,100451.41
2024-02-29T23:45:05.318Z,100455.00
2024-02-29T23:47:32.596Z,100451.63
2024-02-29T23:49:59.678Z,100451.94
2024-02-29T23:52:26.951Z,100445.81
2024-02-29T23:54:54.201Z,100449.97
2024-02-29T23:57:21.250Z,100447.03
2024-02-29T23:59:48.236Z,100444.13
